createdAt,value
2022-08-03T00:00:02.621Z,10.20
2022-08-03T00:01:17.327Z,8.57
2022-08-03T00:02:20.057Z,7.55
2022-08-03T00:03:23.893Z,8.13
2022-08-03T00:04:33.948Z,7.03
2022-08-03T00:05:37.320Z,8.30
2022-08-03T00:06:40.183Z,8.30
2022-08-03T00:07:42.757Z,8.77
2022-08-03T00:08:47.111Z,15.82
2022-08-03T00:09:50.560Z,12.52
2022-08-03T00:10:53.164Z,7.05
2022-08-03T00:11:55.853Z,7.63
2022-08-03T00:12:58.471Z,10.18
2022-08-03T00:14:01.290Z,8.68
2022-08-03T00:15:04.636Z,7.20
2022-08-03T00:16:13.532Z,8.70
2022-08-03T00:17:16.145Z,10.88
2022-08-03T00:18:19.317Z,7.45
2022-08-03T00:19:22.013Z,9.10
2022-08-03T00:20:24.890Z,15.82
2022-08-03T00:21:28.088Z,11.27
2022-08-03T00:22:30.674Z,11.15
2022-08-03T00:23:51.773Z,6.45
2022-08-03T00:24:55.712Z,12.50
2022-08-03T00:25:58.303Z,7.35
2022-08-03T00:27:00.854Z,8.88
2022-08-03T00:28:06.474Z,14.60
2022-08-03T00:29:11.545Z,7.47
2022-08-03T00:30:14.271Z,10.25
2022-08-03T00:31:26.475Z,6.03
2022-08-03T00:32:44.316Z,7.00
2022-08-03T00:33:59.512Z,7.72
2022-08-03T00:35:03.158Z,9.43
2022-08-03T00:36:11.767Z,8.63
2022-08-03T00:37:14.345Z,7.25
2022-08-03T00:38:20.112Z,6.75
2022-08-03T00:39:22.531Z,9.20
2022-08-03T00:40:25.207Z,11.57
2022-08-03T00:41:27.788Z,8.98
2022-08-03T00:42:30.542Z,6.47
2022-08-03T00:43:32.983Z,6.32
2022-08-03T00:44:46.826Z,5.97
2022-08-03T00:45:51.049Z,7.18
2022-08-03T00:46:53.816Z,7.07
2022-08-03T00:47:56.864Z,8.05
2022-08-03T00:48:59.675Z,13.32
2022-08-03T00:50:03.895Z,9.75
2022-08-03T00:51:06.983Z,7.60
2022-08-03T00:52:10.780Z,7.80
2022-08-03T00:53:13.649Z,8.70
2022-08-03T00:54:16.371Z,9.45
2022-08-03T00:55:19.179Z,9.10
2022-08-03T00:56:21.868Z,9.10
2022-08-03T00:57:24.567Z,8.73
2022-08-03T00:58:27.252Z,6.72
2022-08-03T00:59:30.229Z,7.22
2022-08-03T01:00:36.127Z,9.20
2022-08-03T01:01:38.788Z,7.07
2022-08-03T01:02:41.999Z,6.53
2022-08-03T01:03:44.628Z,7.55
2022-08-03T01:04:47.267Z,7.78
2022-08-03T01:06:19.243Z,6.88
2022-08-03T01:07:21.846Z,6.28
2022-08-03T01:08:36.319Z,7.90
2022-08-03T01:09:48.012Z,9.73
2022-08-03T01:10:56.640Z,7.60
2022-08-03T01:12:22.909Z,10.40
2022-08-03T01:14:00.306Z,9.10
2022-08-03T01:15:07.600Z,8.23
2022-08-03T01:16:16.156Z,10.77
2022-08-03T01:17:25.555Z,9.32
2022-08-03T01:19:08.651Z,14.23
2022-08-03T01:20:13.886Z,8.45
2022-08-03T01:21:28.791Z,7.90
2022-08-03T01:22:53.771Z,10.88
2022-08-03T01:24:05.379Z,8.20
2022-08-03T01:25:24.610Z,9.25
2022-08-03T01:26:51.855Z,8.73
2022-08-03T01:27:57.424Z,12.25
2022-08-03T01:29:07.938Z,6.95
2022-08-03T01:30:12.206Z,16.65
2022-08-03T01:31:17.570Z,8.00
2022-08-03T01:32:59.600Z,11.80
2022-08-03T01:33:57.902Z,7.55
2022-08-03T01:35:13.399Z,10.73
2022-08-03T01:36:22.781Z,7.35
2022-08-03T01:37:32.268Z,7.72
2022-08-03T01:38:37.117Z,10.63
2022-08-03T01:39:40.249Z,10.60
2022-08-03T01:40:44.975Z,6.93
2022-08-03T01:41:59.827Z,7.25
2022-08-03T01:43:03.847Z,8.43
2022-08-03T01:44:29.378Z,9.68
2022-08-03T01:45:33.965Z,12.38
2022-08-03T01:46:38.830Z,11.85
2022-08-03T01:47:42.833Z,10.38
2022-08-03T01:48:48.501Z,9.73
2022-08-03T01:49:52.620Z,7.63
2022-08-03T01:50:56.310Z,8.63
2022-08-03T01:52:04.049Z,10.07
2022-08-03T01:53:09.357Z,10.45
2022-08-03T01:54:12.564Z,7.95
2022-08-03T01:55:19.025Z,9.57
2022-08-03T01:56:24.472Z,9.13
2022-08-03T01:57:28.461Z,12.50
2022-08-03T01:58:32.121Z,12.63
2022-08-03T01:59:35.649Z,12.77
2022-08-03T02:00:39.026Z,12.00
2022-08-03T02:02:28.107Z,13.13
2022-08-03T02:03:06.416Z,8.82
2022-08-03T02:04:10.030Z,8.18
2022-08-03T02:05:14.382Z,11.25
2022-08-03T02:07:01.507Z,15.00
2022-08-03T02:07:42.801Z,10.13
2022-08-03T02:08:45.944Z,8.82
2022-08-03T02:09:51.793Z,11.10
2022-08-03T02:10:57.095Z,11.73
2022-08-03T02:12:00.868Z,9.20
2022-08-03T02:13:05.592Z,8.30
2022-08-03T02:14:08.826Z,8.75
2022-08-03T02:15:12.682Z,8.60
2022-08-03T02:16:18.452Z,9.10
2022-08-03T02:17:39.144Z,11.07
2022-08-03T02:18:43.501Z,11.00
2022-08-03T02:19:47.317Z,10.95
2022-08-03T02:20:50.689Z,8.25
2022-08-03T02:21:56.874Z,16.40
2022-08-03T02:23:03.782Z,9.80
2022-08-03T02:24:06.854Z,7.57
2022-08-03T02:25:11.504Z,8.75
2022-08-03T02:26:16.418Z,10.27
2022-08-03T02:27:21.909Z,8.98
2022-08-03T02:28:31.675Z,10.25
2022-08-03T02:29:39.515Z,12.30
2022-08-03T02:30:46.134Z,11.45
2022-08-03T02:31:56.985Z,9.68
2022-08-03T02:33:00.012Z,10.05
2022-08-03T02:34:04.990Z,8.73
2022-08-03T02:35:11.352Z,8.48
2022-08-03T02:36:15.051Z,7.50
2022-08-03T02:37:19.776Z,8.52
2022-08-03T02:38:26.798Z,9.00
2022-08-03T02:39:31.812Z,10.10
2022-08-03T02:40:34.520Z,7.45
2022-08-03T02:41:52.762Z,9.27
2022-08-03T02:42:59.974Z,8.77
2022-08-03T02:44:05.959Z,7.60
2022-08-03T02:45:14.150Z,9.40
2022-08-03T02:46:18.832Z,9.55
2022-08-03T02:47:21.992Z,11.80
2022-08-03T02:48:28.364Z,13.30
2022-08-03T02:49:41.097Z,15.93
2022-08-03T02:50:55.793Z,8.07
2022-08-03T02:51:59.765Z,9.57
2022-08-03T02:53:03.839Z,10.48
2022-08-03T02:54:09.427Z,10.85
2022-08-03T02:55:12.722Z,10.50
2022-08-03T02:56:17.147Z,6.93
2022-08-03T02:57:20.786Z,10.18
2022-08-03T02:58:24.247Z,8.98
2022-08-03T02:59:28.176Z,8.80
2022-08-03T03:00:34.824Z,8.48
2022-08-03T03:01:38.575Z,8.77
2022-08-03T03:02:43.936Z,8.50
2022-08-03T03:03:49.201Z,7.22
2022-08-03T03:05:54.712Z,11.05
2022-08-03T03:06:17.516Z,11.95
2022-08-03T03:07:22.425Z,9.48
2022-08-03T03:08:28.454Z,12.90
2022-08-03T03:09:39.985Z,16.60
2022-08-03T03:10:43.567Z,10.23
2022-08-03T03:11:46.565Z,9.05
2022-08-03T03:12:52.277Z,8.65
2022-08-03T03:13:57.611Z,6.85
2022-08-03T03:15:00.181Z,6.75
2022-08-03T03:16:04.962Z,12.27
2022-08-03T03:17:09.586Z,11.77
2022-08-03T03:18:13.011Z,8.32
2022-08-03T03:19:16.479Z,7.63
2022-08-03T03:20:30.092Z,10.30
2022-08-03T03:21:33.958Z,8.82
2022-08-03T03:22:36.841Z,7.20
2022-08-03T03:23:40.976Z,11.00
2022-08-03T03:24:44.787Z,13.68
2022-08-03T03:25:47.566Z,10.90
2022-08-03T03:26:50.344Z,11.55
2022-08-03T03:27:53.293Z,9.95
2022-08-03T03:28:56.189Z,11.00
2022-08-03T03:29:58.932Z,7.30
2022-08-03T03:31:01.845Z,10.48
2022-08-03T03:32:04.852Z,8.82
2022-08-03T03:33:12.806Z,12.07
2022-08-03T03:34:15.739Z,10.90
2022-08-03T03:35:19.364Z,9.15
2022-08-03T03:36:21.916Z,8.63
2022-08-03T03:37:24.770Z,10.95
2022-08-03T03:38:27.725Z,10.43
2022-08-03T03:39:30.452Z,10.15
2022-08-03T03:40:34.951Z,13.27
2022-08-03T03:41:37.644Z,7.32
2022-08-03T03:42:40.595Z,10.05
2022-08-03T03:43:43.692Z,9.65
2022-08-03T03:44:46.346Z,8.30
2022-08-03T03:45:49.715Z,9.82
2022-08-03T03:46:52.347Z,9.70
2022-08-03T03:47:54.954Z,16.60
2022-08-03T03:48:58.148Z,10.73
2022-08-03T03:50:02.301Z,11.30
2022-08-03T03:51:05.406Z,9.77
2022-08-03T03:52:08.053Z,12.45
2022-08-03T03:53:11.881Z,10.38
2022-08-03T03:54:14.590Z,11.93
2022-08-03T03:55:19.847Z,11.63
2022-08-03T03:56:22.493Z,8.73
2022-08-03T03:57:26.225Z,8.85
2022-08-03T03:58:28.903Z,9.05
2022-08-03T03:59:31.596Z,9.18
2022-08-03T04:00:38.713Z,11.35
2022-08-03T04:01:41.414Z,8.50
2022-08-03T04:02:45.692Z,13.00
2022-08-03T04:03:48.330Z,7.90
2022-08-03T04:05:09.572Z,10.57
2022-08-03T04:06:31.897Z,9.48
2022-08-03T04:08:17.693Z,10.93
2022-08-03T04:09:39.007Z,10.35
2022-08-03T04:10:59.185Z,8.93
2022-08-03T04:12:02.198Z,11.00
2022-08-03T04:13:07.454Z,7.78
2022-08-03T04:14:33.967Z,10.55
2022-08-03T04:15:38.626Z,12.95
2022-08-03T04:16:47.750Z,10.45
2022-08-03T04:17:51.105Z,14.07
2022-08-03T04:18:59.833Z,9.88
2022-08-03T04:20:03.884Z,6.68
2022-08-03T04:21:10.402Z,9.07
2022-08-03T04:22:15.918Z,6.85
2022-08-03T04:23:21.610Z,9.73
2022-08-03T04:24:26.590Z,10.05
2022-08-03T04:25:33.464Z,11.48
2022-08-03T04:26:39.426Z,10.70
2022-08-03T04:27:42.385Z,7.72
2022-08-03T04:28:46.181Z,13.00
2022-08-03T04:29:52.363Z,8.90
2022-08-03T04:30:57.183Z,9.43
2022-08-03T04:32:01.239Z,11.45
2022-08-03T04:33:06.791Z,8.15
2022-08-03T04:34:09.473Z,6.70
2022-08-03T04:35:12.281Z,14.30
2022-08-03T04:36:17.581Z,9.50
2022-08-03T04:37:32.213Z,11.55
2022-08-03T04:38:40.759Z,7.85
2022-08-03T04:39:44.896Z,8.70
2022-08-03T04:40:48.422Z,7.68
2022-08-03T04:42:08.223Z,8.50
2022-08-03T04:43:14.121Z,9.05
2022-08-03T04:44:18.397Z,11.73
2022-08-03T04:45:21.737Z,8.40
2022-08-03T04:46:27.266Z,8.68
2022-08-03T04:47:32.435Z,10.68
2022-08-03T04:48:35.446Z,9.32
2022-08-03T04:49:38.792Z,8.35
2022-08-03T04:50:42.309Z,14.13
2022-08-03T04:51:45.122Z,10.52
2022-08-03T04:52:48.036Z,7.43
2022-08-03T04:53:50.788Z,12.38
2022-08-03T04:54:53.544Z,23.40
2022-08-03T04:55:56.110Z,10.45
2022-08-03T04:57:04.055Z,10.00
2022-08-03T04:58:06.722Z,13.98
2022-08-03T04:59:10.408Z,10.00
2022-08-03T05:00:13.596Z,8.25
2022-08-03T05:01:17.170Z,7.75
2022-08-03T05:02:20.133Z,12.57
2022-08-03T05:03:25.038Z,12.02
2022-08-03T05:04:27.948Z,10.48
2022-08-03T05:05:48.955Z,12.10
2022-08-03T05:06:55.013Z,10.70
2022-08-03T05:07:58.135Z,9.25
2022-08-03T05:09:03.845Z,12.80
2022-08-03T05:10:14.846Z,11.05
2022-08-03T05:11:18.415Z,10.43
2022-08-03T05:12:21.033Z,11.95
2022-08-03T05:13:23.660Z,15.23
2022-08-03T05:14:28.068Z,8.15
2022-08-03T05:15:30.927Z,15.05
2022-08-03T05:16:33.540Z,11.90
2022-08-03T05:17:36.953Z,7.90
2022-08-03T05:18:39.780Z,9.05
2022-08-03T05:19:42.565Z,7.95
2022-08-03T05:20:45.294Z,7.03
2022-08-03T05:21:52.517Z,9.60
2022-08-03T05:22:55.741Z,8.05
2022-08-03T05:23:58.346Z,8.85
2022-08-03T05:25:02.194Z,14.73
2022-08-03T05:26:04.736Z,8.32
2022-08-03T05:27:07.334Z,9.32
2022-08-03T05:28:09.946Z,6.90
2022-08-03T05:29:12.418Z,7.32
2022-08-03T05:30:31.203Z,14.65
2022-08-03T05:31:36.507Z,6.60
2022-08-03T05:32:39.287Z,9.90
2022-08-03T05:33:43.706Z,6.18
2022-08-03T05:34:46.300Z,7.18
2022-08-03T05:35:57.882Z,6.35
2022-08-03T05:37:07.380Z,12.23
2022-08-03T05:38:10.472Z,9.15
2022-08-03T05:39:13.120Z,11.73
2022-08-03T05:40:15.707Z,12.35
2022-08-03T05:41:21.457Z,7.80
2022-08-03T05:42:26.490Z,11.63
2022-08-03T05:43:32.037Z,20.67
2022-08-03T05:44:34.676Z,15.90
2022-08-03T05:45:38.329Z,9.30
2022-08-03T05:46:40.998Z,23.05
2022-08-03T05:47:46.543Z,10.73
2022-08-03T05:48:49.418Z,10.60
2022-08-03T05:49:52.274Z,11.27
2022-08-03T05:50:54.994Z,11.93
2022-08-03T05:52:00.457Z,12.02
2022-08-03T05:53:14.604Z,18.48
2022-08-03T05:54:18.255Z,15.07
2022-08-03T05:55:20.902Z,12.30
2022-08-03T05:56:27.527Z,14.27
2022-08-03T05:57:30.087Z,14.18
2022-08-03T05:58:32.743Z,8.90
2022-08-03T05:59:38.887Z,13.95
2022-08-03T06:00:41.484Z,10.35
2022-08-03T06:01:44.294Z,18.27
2022-08-03T06:02:47.084Z,12.45
2022-08-03T06:03:50.173Z,15.68
2022-08-03T06:04:52.756Z,12.57
2022-08-03T06:06:00.590Z,12.07
2022-08-03T06:07:03.553Z,11.50
2022-08-03T06:08:06.175Z,11.90
2022-08-03T06:09:08.717Z,16.13
2022-08-03T06:10:36.858Z,11.80
2022-08-03T06:11:34.462Z,13.40
2022-08-03T06:12:37.281Z,13.07
2022-08-03T06:13:39.895Z,12.65
2022-08-03T06:14:42.679Z,17.02
2022-08-03T06:15:45.404Z,13.57
2022-08-03T06:16:48.105Z,11.10
2022-08-03T06:17:51.554Z,10.75
2022-08-03T06:18:54.112Z,8.95
2022-08-03T06:19:56.852Z,13.02
2022-08-03T06:21:13.985Z,13.70
2022-08-03T06:22:18.708Z,14.55
2022-08-03T06:23:21.603Z,11.00
2022-08-03T06:24:25.113Z,9.38
2022-08-03T06:25:27.965Z,9.50
2022-08-03T06:26:30.552Z,14.88
2022-08-03T06:27:37.231Z,10.02
2022-08-03T06:28:52.157Z,9.05
2022-08-03T06:29:56.031Z,15.43
2022-08-03T06:30:59.325Z,10.13
2022-08-03T06:32:02.085Z,16.42
2022-08-03T06:33:04.623Z,24.85
2022-08-03T06:34:32.354Z,21.80
2022-08-03T06:35:33.913Z,24.20
2022-08-03T06:36:38.944Z,11.68
2022-08-03T06:37:49.369Z,15.88
2022-08-03T06:38:51.953Z,16.25
2022-08-03T06:39:55.507Z,22.98
2022-08-03T06:40:58.087Z,15.27
2022-08-03T06:42:00.888Z,15.95
2022-08-03T06:43:04.146Z,25.08
2022-08-03T06:44:06.700Z,21.25
2022-08-03T06:45:09.927Z,17.60
2022-08-03T06:46:12.446Z,24.52
2022-08-03T06:47:15.289Z,21.88
2022-08-03T06:48:17.865Z,22.42
2022-08-03T06:49:20.590Z,22.58
2022-08-03T06:50:26.265Z,8.63
2022-08-03T06:52:03.132Z,20.33
2022-08-03T06:52:52.171Z,13.55
2022-08-03T06:53:54.772Z,19.73
2022-08-03T06:54:57.842Z,18.90
2022-08-03T06:56:00.626Z,11.35
2022-08-03T06:57:03.880Z,8.93
2022-08-03T06:58:06.588Z,9.05
2022-08-03T06:59:09.279Z,6.07
2022-08-03T07:00:31.947Z,16.00
2022-08-03T07:01:34.650Z,7.68
2022-08-03T07:02:37.195Z,13.90
2022-08-03T07:03:52.308Z,12.00
2022-08-03T07:04:55.409Z,10.60
2022-08-03T07:05:58.286Z,21.25
2022-08-03T07:07:00.950Z,13.10
2022-08-03T07:08:03.866Z,11.15
2022-08-03T07:09:06.546Z,12.80
2022-08-03T07:10:09.813Z,12.52
2022-08-03T07:11:12.432Z,11.02
2022-08-03T07:12:15.149Z,13.05
2022-08-03T07:13:17.780Z,12.98
2022-08-03T07:14:20.376Z,12.23
2022-08-03T07:15:54.116Z,14.38
2022-08-03T07:16:46.024Z,16.55
2022-08-03T07:17:48.602Z,9.27
2022-08-03T07:18:51.420Z,8.75
2022-08-03T07:19:53.938Z,12.95
2022-08-03T07:20:57.455Z,14.70
2022-08-03T07:22:02.084Z,17.60
2022-08-03T07:23:05.008Z,13.48
2022-08-03T07:24:07.517Z,19.05
2022-08-03T07:25:10.240Z,12.90
2022-08-03T07:26:13.212Z,8.10
2022-08-03T07:27:16.617Z,11.60
2022-08-03T07:28:19.720Z,7.75
2022-08-03T07:29:22.418Z,13.10
2022-08-03T07:30:25.306Z,8.05
2022-08-03T07:31:27.899Z,11.38
2022-08-03T07:32:37.183Z,8.98
2022-08-03T07:33:53.810Z,19.52
2022-08-03T07:35:00.608Z,31.23
2022-08-03T07:36:04.472Z,21.95
2022-08-03T07:37:07.163Z,13.27
2022-08-03T07:38:09.798Z,19.05
2022-08-03T07:39:17.679Z,13.88
2022-08-03T07:40:20.935Z,8.75
2022-08-03T07:41:23.662Z,15.70
2022-08-03T07:42:27.728Z,13.23
2022-08-03T07:43:30.357Z,7.68
2022-08-03T07:44:32.929Z,5.80
2022-08-03T07:45:35.538Z,7.50
2022-08-03T07:46:38.215Z,9.23
2022-08-03T07:47:40.866Z,12.07
2022-08-03T07:48:48.939Z,6.70
2022-08-03T07:49:51.898Z,6.45
2022-08-03T07:50:54.528Z,12.50
2022-08-03T07:52:15.751Z,9.85
2022-08-03T07:53:18.482Z,5.47
2022-08-03T07:54:21.965Z,4.70
2022-08-03T07:55:26.090Z,6.43
2022-08-03T07:56:29.039Z,5.00
2022-08-03T07:57:31.676Z,8.95
2022-08-03T07:58:36.315Z,5.38
2022-08-03T07:59:49.062Z,6.32
2022-08-03T08:01:02.499Z,2.17
2022-08-03T08:02:06.910Z,2.00
2022-08-03T08:03:10.143Z,1.30
2022-08-03T08:04:12.872Z,1.08
2022-08-03T08:05:15.465Z,1.27
2022-08-03T08:06:18.338Z,2.78
2022-08-03T08:07:21.035Z,7.45
2022-08-03T08:08:23.789Z,5.25
2022-08-03T08:09:26.454Z,5.57
2022-08-03T08:10:32.849Z,3.63
2022-08-03T08:11:39.730Z,3.10
2022-08-03T08:12:42.748Z,5.13
2022-08-03T08:13:45.499Z,4.10
2022-08-03T08:14:48.379Z,5.25
2022-08-03T08:15:51.254Z,7.93
2022-08-03T08:16:54.041Z,9.88
2022-08-03T08:17:58.911Z,9.93
2022-08-03T08:19:02.487Z,7.30
2022-08-03T08:20:05.696Z,9.30
2022-08-03T08:21:10.825Z,2.35
2022-08-03T08:22:13.473Z,5.50
2022-08-03T08:23:42.462Z,3.63
2022-08-03T08:24:48.596Z,4.35
2022-08-03T08:25:54.123Z,2.00
2022-08-03T08:26:57.396Z,2.53
2022-08-03T08:28:30.434Z,1.42
2022-08-03T08:29:27.743Z,3.20
2022-08-03T08:30:32.462Z,1.48
2022-08-03T08:31:35.063Z,1.65
2022-08-03T08:32:37.683Z,2.90
2022-08-03T08:35:03.506Z,3.83
2022-08-03T08:36:06.500Z,3.53
2022-08-03T08:37:09.052Z,6.93
2022-08-03T08:38:11.722Z,2.20
2022-08-03T08:39:14.349Z,1.60
2022-08-03T08:40:23.278Z,1.38
2022-08-03T08:41:32.263Z,1.92
2022-08-03T08:42:38.185Z,1.48
2022-08-03T08:43:41.697Z,5.43
2022-08-03T08:44:44.391Z,2.78
2022-08-03T08:45:50.239Z,2.55
2022-08-03T08:46:54.013Z,2.35
2022-08-03T08:48:01.035Z,2.15
2022-08-03T08:49:07.977Z,1.27
2022-08-03T08:50:27.469Z,1.60
2022-08-03T08:51:52.749Z,1.65
2022-08-03T08:52:56.674Z,2.08
2022-08-03T08:54:03.002Z,1.48
2022-08-03T08:55:08.380Z,1.20
2022-08-03T08:56:15.580Z,1.13
2022-08-03T08:57:41.571Z,3.75
2022-08-03T08:58:47.758Z,8.10
2022-08-03T08:59:57.373Z,1.48
2022-08-03T09:01:00.270Z,0.90
2022-08-03T09:02:03.371Z,0.90
2022-08-03T09:03:07.202Z,2.00
2022-08-03T09:04:09.992Z,2.90
2022-08-03T09:05:13.904Z,2.78
2022-08-03T09:06:17.083Z,2.45
2022-08-03T09:07:20.696Z,1.10
2022-08-03T09:08:23.699Z,1.95
2022-08-03T09:10:05.265Z,1.35
2022-08-03T09:10:49.275Z,2.83
2022-08-03T09:12:01.062Z,1.90
2022-08-03T09:13:11.679Z,2.72
2022-08-03T09:14:35.301Z,5.30
2022-08-03T09:15:39.326Z,1.02
2022-08-03T09:17:04.775Z,3.80
2022-08-03T09:18:09.423Z,5.68
2022-08-03T09:19:16.967Z,1.55
2022-08-03T09:20:20.943Z,1.95
2022-08-03T09:21:34.663Z,5.00
2022-08-03T09:22:55.662Z,1.35
2022-08-03T09:24:04.179Z,3.70
2022-08-03T09:25:27.200Z,2.65
2022-08-03T09:26:31.317Z,3.55
2022-08-03T09:27:44.331Z,3.65
2022-08-03T09:29:00.703Z,1.70
2022-08-03T09:30:33.680Z,1.58
2022-08-03T09:31:43.164Z,3.53
2022-08-03T09:32:47.680Z,1.90
2022-08-03T09:33:50.520Z,1.77
2022-08-03T09:34:58.050Z,2.30
2022-08-03T09:36:00.868Z,1.50
2022-08-03T09:37:13.960Z,1.75
2022-08-03T09:38:26.356Z,1.75
2022-08-03T09:39:40.948Z,2.15
2022-08-03T09:40:46.322Z,2.42
2022-08-03T09:42:05.346Z,2.92
2022-08-03T09:43:08.452Z,4.13
2022-08-03T09:44:25.179Z,2.72
2022-08-03T09:45:30.157Z,3.72
2022-08-03T09:46:33.473Z,2.55
2022-08-03T09:47:36.674Z,3.95
2022-08-03T09:48:39.252Z,2.78
2022-08-03T09:49:42.981Z,1.92
2022-08-03T09:50:58.615Z,2.97
2022-08-03T09:52:37.665Z,3.47
2022-08-03T09:53:58.693Z,5.65
2022-08-03T09:55:07.924Z,3.03
2022-08-03T09:56:44.570Z,2.75
2022-08-03T09:57:47.322Z,2.20
2022-08-03T09:58:51.197Z,3.15
2022-08-03T10:00:04.598Z,2.80
2022-08-03T10:01:24.233Z,2.00
2022-08-03T10:02:28.176Z,2.72
2022-08-03T10:03:32.834Z,3.75
2022-08-03T10:04:47.982Z,2.25
2022-08-03T10:05:50.831Z,3.17
2022-08-03T10:07:05.450Z,3.20
2022-08-03T10:08:15.397Z,2.58
2022-08-03T10:09:18.540Z,3.83
2022-08-03T10:10:30.146Z,5.07
2022-08-03T10:11:40.853Z,2.85
2022-08-03T10:12:45.105Z,3.05
2022-08-03T10:13:48.681Z,3.47
2022-08-03T10:14:52.721Z,3.05
2022-08-03T10:16:21.353Z,3.22
2022-08-03T10:17:19.443Z,2.85
2022-08-03T10:18:22.260Z,3.40
2022-08-03T10:19:25.893Z,3.30
2022-08-03T10:20:28.726Z,3.42
2022-08-03T10:21:36.687Z,2.50
2022-08-03T10:22:40.498Z,3.25
2022-08-03T10:23:43.102Z,2.88
2022-08-03T10:25:12.724Z,3.33
2022-08-03T10:26:19.410Z,2.75
2022-08-03T10:27:23.606Z,2.95
2022-08-03T10:28:26.831Z,3.08
2022-08-03T10:29:30.231Z,3.15
2022-08-03T10:30:33.396Z,2.85
2022-08-03T10:31:55.875Z,2.88
2022-08-03T10:33:49.582Z,2.35
2022-08-03T10:34:42.598Z,5.22
2022-08-03T10:35:51.286Z,2.65
2022-08-03T10:36:59.495Z,2.35
2022-08-03T10:38:10.559Z,3.70
2022-08-03T10:39:16.213Z,2.67
2022-08-03T10:40:39.641Z,2.85
2022-08-03T10:41:46.271Z,1.83
2022-08-03T10:42:51.650Z,1.80
2022-08-03T10:44:01.907Z,1.83
2022-08-03T10:45:05.947Z,3.17
2022-08-03T10:46:08.738Z,1.70
2022-08-03T10:47:11.648Z,2.20
2022-08-03T10:48:14.683Z,2.25
2022-08-03T10:49:31.861Z,1.70
2022-08-03T10:50:37.172Z,2.25
2022-08-03T10:51:39.993Z,1.85
2022-08-03T10:53:06.647Z,3.55
2022-08-03T10:55:03.474Z,1.45
2022-08-03T10:56:54.632Z,1.23
2022-08-03T10:57:59.179Z,1.77
2022-08-03T10:59:03.821Z,3.63
2022-08-03T11:00:08.149Z,1.95
2022-08-03T11:01:12.221Z,1.85
2022-08-03T11:02:15.340Z,3.47
2022-08-03T11:03:18.690Z,1.42
2022-08-03T11:04:24.352Z,1.73
2022-08-03T11:05:29.072Z,2.40
2022-08-03T11:06:37.442Z,1.80
2022-08-03T11:07:40.636Z,1.30
2022-08-03T11:08:43.225Z,5.80
2022-08-03T11:09:48.683Z,1.10
2022-08-03T11:10:54.068Z,1.45
2022-08-03T11:11:56.754Z,1.15
2022-08-03T11:13:09.741Z,3.35
2022-08-03T11:14:21.209Z,1.13
2022-08-03T11:15:33.542Z,4.45
2022-08-03T11:16:37.454Z,2.97
2022-08-03T11:17:46.623Z,1.00
2022-08-03T11:19:00.608Z,1.35
2022-08-03T11:20:05.232Z,2.22
2022-08-03T11:21:07.891Z,1.67
2022-08-03T11:22:10.515Z,1.90
2022-08-03T11:23:16.858Z,2.42
2022-08-03T11:24:39.224Z,3.65
2022-08-03T11:26:13.536Z,1.70
2022-08-03T11:27:16.204Z,1.42
2022-08-03T11:28:29.023Z,2.83
2022-08-03T11:29:33.246Z,2.20
2022-08-03T11:30:36.035Z,4.38
2022-08-03T11:31:49.890Z,3.97
2022-08-03T11:32:57.808Z,1.25
2022-08-03T11:34:11.407Z,2.13
2022-08-03T11:35:23.891Z,1.80
2022-08-03T11:36:32.105Z,1.83
2022-08-03T11:37:36.072Z,1.05
2022-08-03T11:39:17.262Z,2.20
2022-08-03T11:40:54.356Z,1.33
2022-08-03T11:41:57.093Z,2.25
2022-08-03T11:42:59.704Z,1.05
2022-08-03T11:44:02.997Z,7.97
2022-08-03T11:45:07.794Z,1.70
2022-08-03T11:46:28.097Z,1.35
2022-08-03T11:47:37.694Z,4.78
2022-08-03T11:48:53.474Z,2.20
2022-08-03T11:50:00.698Z,1.88
2022-08-03T11:51:05.186Z,0.82
2022-08-03T11:52:09.382Z,1.50
2022-08-03T11:53:17.303Z,1.50
2022-08-03T11:54:20.108Z,1.20
2022-08-03T11:55:22.776Z,2.08
2022-08-03T11:56:26.043Z,4.40
2022-08-03T11:59:01.335Z,2.47
2022-08-03T11:59:20.710Z,2.65
2022-08-03T12:00:29.204Z,2.97
2022-08-03T12:01:31.814Z,2.65
2022-08-03T12:02:36.811Z,0.90
2022-08-03T12:03:39.460Z,1.63
2022-08-03T12:04:51.695Z,1.10
2022-08-03T12:05:54.795Z,4.18
2022-08-03T12:07:01.439Z,1.40
2022-08-03T12:08:06.930Z,1.67
2022-08-03T12:09:16.248Z,1.00
2022-08-03T12:10:18.908Z,2.35
2022-08-03T12:11:21.652Z,1.85
2022-08-03T12:12:26.062Z,1.15
2022-08-03T12:14:45.074Z,2.40
2022-08-03T12:15:05.767Z,0.95
2022-08-03T12:16:09.566Z,4.05
2022-08-03T12:17:12.229Z,6.47
2022-08-03T12:18:17.636Z,0.95
2022-08-03T12:19:20.329Z,1.95
2022-08-03T12:20:35.276Z,1.60
2022-08-03T12:21:57.390Z,2.35
2022-08-03T12:23:05.328Z,2.33
2022-08-03T12:24:08.133Z,2.60
2022-08-03T12:25:38.562Z,1.52
2022-08-03T12:26:58.336Z,3.55
2022-08-03T12:28:36.450Z,2.08
2022-08-03T12:29:40.400Z,4.82
2022-08-03T12:30:44.014Z,1.70
2022-08-03T12:31:47.345Z,1.13
2022-08-03T12:32:50.010Z,2.30
2022-08-03T12:34:03.208Z,1.55
2022-08-03T12:35:06.358Z,0.82
2022-08-03T12:36:10.232Z,1.10
2022-08-03T12:37:22.130Z,6.30
2022-08-03T12:38:25.891Z,4.18
2022-08-03T12:39:31.015Z,8.40
2022-08-03T12:40:33.933Z,3.22
2022-08-03T12:41:39.018Z,2.00
2022-08-03T12:42:41.776Z,2.05
2022-08-03T12:43:51.402Z,1.48
2022-08-03T12:44:56.335Z,3.72
2022-08-03T12:46:09.281Z,1.85
2022-08-03T12:53:05.328Z,1.35
2022-08-03T12:54:24.722Z,2.50
2022-08-03T12:55:56.377Z,1.38
2022-08-03T12:57:08.398Z,3.15
2022-08-03T12:58:34.556Z,1.85
2022-08-03T12:59:53.863Z,2.30
2022-08-03T13:00:56.591Z,1.85
2022-08-03T13:01:59.720Z,2.40
2022-08-03T13:04:35.330Z,1.92
2022-08-03T13:05:45.039Z,2.30
2022-08-03T13:07:15.445Z,4.40
2022-08-03T13:09:26.275Z,6.28
2022-08-03T13:10:33.799Z,1.73
2022-08-03T13:11:57.772Z,2.17
2022-08-03T13:13:00.314Z,2.50
2022-08-03T13:14:03.033Z,4.35
2022-08-03T13:15:06.136Z,1.85
2022-08-03T13:16:08.689Z,1.73
2022-08-03T13:17:11.892Z,4.20
2022-08-03T13:18:15.237Z,4.63
2022-08-03T13:19:20.093Z,1.33
2022-08-03T13:20:23.657Z,9.57
2022-08-03T13:21:29.339Z,3.05
2022-08-03T13:22:34.911Z,2.28
2022-08-03T13:23:37.475Z,6.80
2022-08-03T13:24:40.161Z,2.95
2022-08-03T13:25:55.275Z,2.92
2022-08-03T13:26:59.452Z,1.40
2022-08-03T13:28:06.498Z,1.25
2022-08-03T13:29:10.023Z,2.28
2022-08-03T13:30:13.189Z,3.70
2022-08-03T13:31:15.936Z,2.50
2022-08-03T13:32:18.475Z,2.45
2022-08-03T13:33:20.929Z,2.67
2022-08-03T13:34:24.176Z,2.05
2022-08-03T13:35:26.815Z,3.92
2022-08-03T13:36:29.948Z,1.92
2022-08-03T13:37:47.774Z,4.43
2022-08-03T13:38:51.734Z,4.15
2022-08-03T13:39:58.745Z,1.20
2022-08-03T13:41:04.988Z,2.05
2022-08-03T13:42:08.210Z,2.17
2022-08-03T13:43:13.085Z,2.78
2022-08-03T13:44:29.129Z,2.67
2022-08-03T13:45:32.449Z,1.92
2022-08-03T13:46:35.140Z,4.03
2022-08-03T13:47:38.036Z,6.43
2022-08-03T13:48:40.727Z,1.48
2022-08-03T13:49:55.849Z,3.28
2022-08-03T13:51:05.603Z,1.77
2022-08-03T13:52:24.296Z,4.13
2022-08-03T13:53:26.992Z,2.78
2022-08-03T13:54:30.846Z,7.25
2022-08-03T13:55:33.685Z,2.72
2022-08-03T13:56:36.387Z,2.58
2022-08-03T13:58:02.724Z,1.95
2022-08-03T13:59:01.800Z,3.60
2022-08-03T14:00:05.809Z,2.78
2022-08-03T14:01:08.751Z,2.50
2022-08-03T14:02:11.776Z,4.35
2022-08-03T14:03:15.026Z,2.28
2022-08-03T14:04:21.630Z,4.32
2022-08-03T14:05:25.095Z,2.55
2022-08-03T14:06:28.052Z,1.95
2022-08-03T14:07:30.702Z,4.63
2022-08-03T14:08:33.237Z,1.75
2022-08-03T14:09:35.990Z,1.42
2022-08-03T14:10:41.489Z,2.63
2022-08-03T14:12:04.014Z,5.18
2022-08-03T14:13:07.478Z,2.63
2022-08-03T14:14:10.103Z,2.75
2022-08-03T14:15:13.177Z,1.60
2022-08-03T14:16:16.995Z,3.47
2022-08-03T14:17:42.234Z,6.60
2022-08-03T14:18:52.673Z,3.22
2022-08-03T14:19:55.290Z,3.00
2022-08-03T14:21:06.048Z,1.92
2022-08-03T14:22:09.351Z,3.95
2022-08-03T14:23:12.754Z,5.47
2022-08-03T14:24:16.951Z,2.08
2022-08-03T14:25:19.569Z,4.25
2022-08-03T14:26:22.265Z,2.03
2022-08-03T14:27:24.940Z,1.83
2022-08-03T14:28:28.697Z,2.80
2022-08-03T14:29:31.346Z,1.55
2022-08-03T14:30:34.672Z,2.33
2022-08-03T14:32:11.878Z,2.78
2022-08-03T14:33:00.999Z,3.42
2022-08-03T14:34:03.772Z,1.45
2022-08-03T14:35:06.761Z,1.73
2022-08-03T14:36:09.286Z,4.95
2022-08-03T14:37:11.849Z,1.80
2022-08-03T14:38:14.805Z,4.15
2022-08-03T14:39:17.489Z,2.45
2022-08-03T14:40:20.626Z,2.72
2022-08-03T14:41:23.418Z,1.73
2022-08-03T14:42:26.045Z,2.80
2022-08-03T14:43:34.070Z,3.75
2022-08-03T14:44:37.148Z,3.42
2022-08-03T14:45:40.517Z,1.50
2022-08-03T14:46:43.053Z,3.03
2022-08-03T14:50:28.892Z,4.13
2022-08-03T14:50:37.431Z,2.20
2022-08-03T14:50:41.923Z,2.50
2022-08-03T14:51:51.575Z,2.10
2022-08-03T14:52:56.724Z,2.70
2022-08-03T14:53:59.443Z,1.63
2022-08-03T14:55:02.266Z,7.43